createdAt,value
2019-02-19T00:01:19.136Z,56.94
2019-02-19T00:03:48.700Z,57.33
2019-02-19T00:06:18.208Z,57.15
2019-02-19T00:08:47.953Z,57.34
2019-02-19T00:11:17.496Z,57.02
2019-02-19T00:13:47.014Z,57.53
2019-02-19T00:16:16.660Z,57.51
2019-02-19T00:18:46.860Z,57.56
2019-02-19T00:21:16.392Z,57.75
2019-02-19T00:23:46.214Z,57.51
2019-02-19T00:26:18.205Z,57.96
2019-02-19T00:28:47.808Z,58.03
2019-02-19T00:31:17.396Z,58.21
2019-02-19T00:33:47.063Z,58.16
2019-02-19T00:36:16.630Z,58.43
2019-02-19T00:38:46.140Z,58.55
2019-02-19T00:41:15.976Z,58.10
2019-02-19T00:43:45.560Z,57.58
2019-02-19T00:46:15.082Z,57.35
2019-02-19T00:48:44.664Z,57.33
2019-02-19T00:51:14.234Z,56.82
2019-02-19T00:53:43.738Z,56.86
2019-02-19T00:56:13.281Z,57.03
2019-02-19T00:58:42.789Z,57.13
2019-02-19T01:01:12.369Z,57.11
2019-02-19T01:03:42.088Z,57.08
2019-02-19T01:06:11.628Z,57.14
2019-02-19T01:08:41.146Z,57.69
2019-02-19T01:11:11.032Z,57.57
2019-02-19T01:13:40.737Z,57.83
2019-02-19T01:16:10.754Z,57.15
2019-02-19T01:18:40.445Z,57.26
2019-02-19T01:21:09.971Z,57.02
2019-02-19T01:23:39.479Z,57.18
2019-02-19T01:26:09.316Z,57.45
2019-02-19T01:28:38.818Z,57.37
2019-02-19T01:31:08.327Z,57.57
2019-02-19T01:33:37.881Z,57.52
2019-02-19T01:36:07.675Z,57.23
2019-02-19T01:38:37.185Z,57.03
2019-02-19T01:41:06.737Z,56.74
2019-02-19T01:43:36.231Z,57.30
2019-02-19T01:46:05.801Z,57.14
2019-02-19T01:48:43.444Z,57.43
2019-02-19T01:51:12.959Z,57.08
2019-02-19T01:53:42.468Z,56.56
2019-02-19T01:56:12.010Z,57.05
2019-02-19T01:58:41.515Z,57.10
2019-02-19T02:01:11.076Z,57.22
2019-02-19T02:03:40.623Z,56.96
2019-02-19T02:06:10.132Z,56.63
2019-02-19T02:08:39.912Z,57.25
2019-02-19T02:11:10.671Z,56.74
2019-02-19T02:13:41.255Z,56.47
2019-02-19T02:16:10.748Z,56.68
2019-02-19T02:18:40.311Z,56.20
2019-02-19T02:21:09.803Z,56.74
2019-02-19T02:23:39.633Z,56.45
2019-02-19T02:26:09.242Z,56.33
2019-02-19T02:28:38.753Z,56.19
2019-02-19T02:31:08.259Z,55.77
2019-02-19T02:33:37.875Z,55.66
2019-02-19T02:36:07.542Z,55.24
2019-02-19T02:38:37.220Z,55.44
2019-02-19T02:41:06.858Z,55.67
2019-02-19T02:43:36.371Z,55.26
2019-02-19T02:46:05.917Z,55.03
2019-02-19T02:48:35.552Z,55.64
2019-02-19T02:51:05.147Z,56.13
2019-02-19T02:53:34.668Z,55.66
2019-02-19T02:56:04.276Z,55.75
2019-02-19T02:58:33.982Z,55.38
2019-02-19T03:01:03.576Z,55.63
2019-02-19T03:03:33.195Z,55.45
2019-02-19T03:06:07.540Z,55.45
2019-02-19T03:08:37.253Z,55.39
2019-02-19T03:11:06.977Z,55.38
2019-02-19T03:13:36.555Z,55.15
2019-02-19T03:16:06.185Z,55.43
2019-02-19T03:18:35.737Z,55.55
2019-02-19T03:21:05.265Z,55.52
2019-02-19T03:23:34.865Z,55.55
2019-02-19T03:26:05.605Z,55.80
2019-02-19T03:28:35.146Z,55.87
2019-02-19T03:31:04.662Z,55.62
2019-02-19T03:33:34.501Z,55.68
2019-02-19T03:36:04.013Z,55.73
2019-02-19T03:38:33.553Z,55.79
2019-02-19T03:41:03.148Z,55.54
2019-02-19T03:43:32.758Z,55.33
2019-02-19T03:46:11.482Z,55.49
2019-02-19T03:48:33.779Z,55.54
2019-02-19T03:51:03.328Z,56.50
2019-02-19T03:53:32.999Z,56.14
2019-02-19T03:56:02.828Z,56.69
2019-02-19T03:58:32.580Z,56.11
2019-02-19T04:01:02.171Z,55.87
2019-02-19T04:03:31.978Z,55.61
2019-02-19T04:06:01.685Z,56.42
2019-02-19T04:08:31.331Z,56.70
2019-02-19T04:11:01.461Z,57.00
2019-02-19T04:13:31.122Z,56.93
2019-02-19T04:16:00.822Z,56.97
2019-02-19T04:18:33.535Z,56.26
2019-02-19T04:21:03.248Z,56.26
2019-02-19T04:23:33.429Z,56.09
2019-02-19T04:26:03.181Z,56.48
2019-02-19T04:28:32.716Z,56.70
2019-02-19T04:31:02.386Z,56.96
2019-02-19T04:33:32.102Z,57.82
2019-02-19T04:36:01.889Z,58.09
2019-02-19T04:38:31.497Z,57.54
2019-02-19T04:41:02.199Z,58.68
2019-02-19T04:43:31.835Z,58.31
2019-02-19T04:46:01.478Z,58.07
2019-02-19T04:48:31.259Z,57.82
2019-02-19T04:51:00.812Z,58.31
2019-02-19T04:53:30.413Z,58.75
2019-02-19T04:56:00.047Z,58.65
2019-02-19T04:58:30.242Z,58.78
2019-02-19T05:01:00.315Z,58.88
2019-02-19T05:03:31.131Z,58.84
2019-02-19T05:06:00.689Z,58.76
2019-02-19T05:08:30.466Z,59.37
2019-02-19T05:11:00.126Z,59.50
2019-02-19T05:13:29.930Z,58.67
2019-02-19T05:15:59.572Z,58.77
2019-02-19T05:18:29.146Z,59.21
2019-02-19T05:20:58.884Z,59.62
2019-02-19T05:23:28.399Z,60.63
2019-02-19T05:25:58.519Z,60.48
2019-02-19T05:28:28.140Z,60.90
2019-02-19T05:30:57.694Z,61.14
2019-02-19T05:33:27.366Z,61.83
2019-02-19T05:35:56.962Z,61.60
2019-02-19T05:38:26.509Z,62.17
2019-02-19T05:40:56.039Z,62.39
2019-02-19T05:43:25.545Z,62.74
2019-02-19T05:45:55.034Z,63.06
2019-02-19T05:48:25.106Z,64.05
2019-02-19T05:50:54.658Z,64.25
2019-02-19T05:53:24.164Z,64.75
2019-02-19T05:55:53.766Z,65.02
2019-02-19T05:58:23.315Z,65.74
2019-02-19T06:00:52.981Z,66.23
2019-02-19T06:03:22.548Z,66.72
2019-02-19T06:05:52.202Z,67.01
2019-02-19T06:08:21.785Z,66.86
2019-02-19T06:10:51.671Z,67.54
2019-02-19T06:13:21.213Z,68.51
2019-02-19T06:15:50.796Z,68.95
2019-02-19T06:18:20.803Z,69.96
2019-02-19T06:20:50.412Z,70.54
2019-02-19T06:23:20.034Z,70.16
2019-02-19T06:25:49.649Z,70.80
2019-02-19T06:28:19.173Z,71.35
2019-02-19T06:30:48.800Z,71.98
2019-02-19T06:33:18.666Z,72.93
2019-02-19T06:35:48.527Z,73.89
2019-02-19T06:38:18.039Z,74.95
2019-02-19T06:40:47.618Z,75.35
2019-02-19T06:43:17.279Z,76.29
2019-02-19T06:45:46.863Z,76.21
2019-02-19T06:48:16.442Z,75.10
2019-02-19T06:50:46.016Z,75.49
2019-02-19T06:53:15.542Z,75.42
2019-02-19T06:55:45.753Z,75.18
2019-02-19T06:58:15.281Z,74.88
2019-02-19T07:00:44.811Z,76.56
2019-02-19T07:03:22.339Z,75.70
2019-02-19T07:05:51.936Z,74.35
2019-02-19T07:08:21.522Z,76.36
2019-02-19T07:10:51.801Z,77.96
2019-02-19T07:13:21.325Z,76.85
2019-02-19T07:15:50.815Z,76.06
2019-02-19T07:18:21.199Z,75.88
2019-02-19T07:20:50.909Z,76.13
2019-02-19T07:23:20.432Z,75.88
2019-02-19T07:25:50.382Z,75.40
2019-02-19T07:28:19.967Z,75.56
2019-02-19T07:30:49.577Z,74.61
2019-02-19T07:33:19.326Z,74.52
2019-02-19T07:35:48.900Z,74.82
2019-02-19T07:38:19.271Z,76.11
2019-02-19T07:40:48.832Z,76.85
2019-02-19T07:43:18.366Z,77.44
2019-02-19T07:45:47.879Z,77.93
2019-02-19T07:48:17.413Z,77.12
2019-02-19T07:50:46.920Z,76.90
2019-02-19T07:53:16.433Z,76.34
2019-02-19T07:55:46.173Z,76.97
2019-02-19T07:58:15.673Z,75.83
2019-02-19T08:00:45.209Z,75.40
2019-02-19T08:03:14.755Z,75.00
2019-02-19T08:05:44.258Z,74.32
2019-02-19T08:08:13.829Z,74.96
2019-02-19T08:10:43.369Z,74.54
2019-02-19T08:13:12.896Z,75.05
2019-02-19T08:15:42.454Z,75.47
2019-02-19T08:18:12.131Z,74.81
2019-02-19T08:20:41.629Z,74.11
2019-02-19T08:23:11.145Z,73.88
2019-02-19T08:25:40.691Z,73.16
2019-02-19T08:28:10.223Z,73.67
2019-02-19T08:30:39.716Z,72.85
2019-02-19T08:33:09.253Z,72.21
2019-02-19T08:35:38.794Z,71.65
2019-02-19T08:38:08.323Z,71.10
2019-02-19T08:40:38.102Z,70.45
2019-02-19T08:43:07.591Z,69.37
2019-02-19T08:45:37.124Z,69.72
2019-02-19T08:48:06.763Z,71.80
2019-02-19T08:50:36.285Z,71.03
2019-02-19T08:53:05.802Z,70.19
2019-02-19T08:55:35.339Z,69.32
2019-02-19T08:58:04.980Z,69.46
2019-02-19T09:00:34.567Z,69.01
2019-02-19T09:03:04.169Z,69.17
2019-02-19T09:05:33.671Z,68.84
2019-02-19T09:08:03.279Z,70.75
2019-02-19T09:10:32.831Z,70.32
2019-02-19T09:13:02.387Z,70.30
2019-02-19T09:15:32.002Z,69.42
2019-02-19T09:18:01.603Z,67.82
2019-02-19T09:20:31.176Z,67.49
2019-02-19T09:23:02.102Z,67.38
2019-02-19T09:25:32.737Z,67.76
2019-02-19T09:28:02.257Z,67.57
2019-02-19T09:30:31.793Z,65.45
2019-02-19T09:33:01.389Z,65.70
2019-02-19T09:35:30.904Z,62.45
2019-02-19T09:38:00.409Z,61.25
2019-02-19T09:40:29.974Z,60.79
2019-02-19T09:42:59.481Z,61.44
2019-02-19T09:45:29.019Z,64.38
2019-02-19T09:48:01.300Z,66.70
2019-02-19T09:50:30.150Z,65.84
2019-02-19T09:53:00.390Z,66.39
2019-02-19T09:55:30.122Z,66.87
2019-02-19T09:57:59.614Z,66.38
2019-02-19T10:00:29.222Z,65.27
2019-02-19T10:02:58.791Z,61.53
2019-02-19T10:05:28.299Z,56.70
2019-02-19T10:07:57.830Z,56.50
2019-02-19T10:10:27.811Z,52.86
2019-02-19T10:12:57.338Z,50.02
2019-02-19T10:15:26.933Z,49.39
2019-02-19T10:17:56.568Z,47.70
2019-02-19T10:20:26.155Z,47.68
2019-02-19T10:22:55.760Z,48.99
2019-02-19T10:25:25.709Z,49.88
2019-02-19T10:27:55.233Z,50.68
2019-02-19T10:30:24.915Z,50.75
2019-02-19T10:32:54.998Z,50.26
2019-02-19T10:35:24.511Z,51.42
2019-02-19T10:37:54.129Z,52.17
2019-02-19T10:40:23.841Z,55.07
2019-02-19T10:42:53.389Z,57.24
2019-02-19T10:45:26.625Z,57.24
2019-02-19T10:47:56.919Z,57.79
2019-02-19T10:50:26.723Z,58.35
2019-02-19T10:52:56.265Z,55.55
2019-02-19T10:55:25.809Z,54.64
2019-02-19T10:57:55.385Z,52.58
2019-02-19T11:00:25.454Z,50.87
2019-02-19T11:02:54.998Z,51.86
2019-02-19T11:05:24.650Z,52.09
2019-02-19T11:07:54.199Z,51.46
2019-02-19T11:10:23.997Z,54.21
2019-02-19T11:12:53.566Z,52.45
2019-02-19T11:15:23.093Z,52.32
2019-02-19T11:17:52.735Z,52.91
2019-02-19T11:20:23.486Z,52.35
2019-02-19T11:22:53.022Z,52.27
2019-02-19T11:25:22.588Z,53.52
2019-02-19T11:27:52.102Z,55.22
2019-02-19T11:30:21.639Z,55.81
2019-02-19T11:32:52.568Z,58.06
2019-02-19T11:35:22.151Z,58.26
2019-02-19T11:37:51.682Z,56.96
2019-02-19T11:40:21.239Z,55.07
2019-02-19T11:42:50.757Z,46.68
2019-02-19T11:45:21.043Z,39.96
2019-02-19T11:47:50.999Z,37.69
2019-02-19T11:50:20.504Z,38.58
2019-02-19T11:52:50.007Z,38.96
2019-02-19T11:55:23.544Z,36.17
2019-02-19T11:57:53.068Z,38.99
2019-02-19T12:00:30.086Z,43.62
2019-02-19T12:02:59.632Z,47.58
2019-02-19T12:05:29.160Z,50.02
2019-02-19T12:07:58.796Z,50.82
2019-02-19T12:10:28.391Z,51.98
2019-02-19T12:12:58.124Z,54.12
2019-02-19T12:15:34.977Z,53.63
2019-02-19T12:17:59.855Z,53.35
2019-02-19T12:20:29.717Z,53.02
2019-02-19T12:22:59.360Z,52.79
2019-02-19T12:25:28.906Z,53.38
2019-02-19T12:27:59.545Z,52.25
2019-02-19T12:30:31.070Z,51.49
2019-02-19T12:33:00.654Z,51.71
2019-02-19T12:35:30.271Z,50.92
2019-02-19T12:37:59.965Z,50.73
2019-02-19T12:40:29.559Z,50.14
2019-02-19T12:42:59.105Z,51.38
2019-02-19T12:45:28.707Z,52.04
2019-02-19T12:47:58.912Z,51.90
2019-02-19T12:50:28.494Z,52.64
2019-02-19T12:53:00.200Z,54.57
2019-02-19T12:55:29.876Z,55.77
2019-02-19T12:57:59.465Z,55.36
2019-02-19T13:00:29.249Z,55.59
2019-02-19T13:02:58.864Z,56.10
2019-02-19T13:05:28.950Z,55.88
2019-02-19T13:07:59.110Z,55.94
2019-02-19T13:10:28.672Z,55.78
2019-02-19T13:12:58.730Z,55.02
2019-02-19T13:15:28.637Z,54.50
2019-02-19T13:18:01.318Z,54.47
2019-02-19T13:20:32.567Z,54.67
2019-02-19T13:23:02.279Z,55.16
2019-02-19T13:25:32.137Z,56.32
2019-02-19T13:28:01.749Z,56.14
2019-02-19T13:30:32.817Z,55.29
2019-02-19T13:33:02.358Z,55.37
2019-02-19T13:35:31.957Z,56.66
2019-02-19T13:38:01.669Z,57.14
2019-02-19T13:40:31.273Z,56.98
2019-02-19T13:43:00.818Z,57.16
2019-02-19T13:45:32.195Z,57.30
2019-02-19T13:48:05.998Z,57.04
2019-02-19T13:50:33.637Z,56.94
2019-02-19T13:53:05.582Z,57.01
2019-02-19T13:55:36.885Z,55.63
2019-02-19T13:58:06.407Z,55.38
2019-02-19T14:00:40.212Z,55.60
2019-02-19T14:03:09.825Z,55.94
2019-02-19T14:05:39.386Z,56.11
2019-02-19T14:08:14.707Z,56.28
2019-02-19T14:10:40.781Z,56.65
2019-02-19T14:13:10.401Z,56.51
2019-02-19T14:15:39.864Z,56.48
2019-02-19T14:18:11.043Z,56.61
2019-02-19T14:20:47.988Z,56.85
2019-02-19T14:23:21.954Z,56.82
2019-02-19T14:26:05.305Z,58.11
2019-02-19T14:28:36.551Z,58.05
2019-02-19T14:31:25.517Z,58.83
2019-02-19T14:34:14.777Z,59.36
2019-02-19T14:36:58.075Z,58.70
2019-02-19T14:39:34.935Z,58.62
2019-02-19T14:42:17.289Z,58.87
2019-02-19T14:44:57.599Z,59.19
2019-02-19T14:47:29.945Z,59.16
2019-02-19T14:50:10.350Z,59.08
2019-02-19T14:52:56.132Z,59.91
2019-02-19T14:55:32.958Z,60.53
2019-02-19T14:58:08.065Z,60.23
2019-02-19T15:00:52.564Z,60.53
2019-02-19T15:03:24.572Z,60.02
2019-02-19T15:06:13.653Z,60.18
2019-02-19T15:08:47.639Z,60.34
2019-02-19T15:11:22.034Z,60.58
2019-02-19T15:14:04.727Z,60.21
2019-02-19T15:16:35.969Z,60.64
2019-02-19T15:19:19.510Z,60.55
2019-02-19T15:21:46.262Z,60.25
2019-02-19T15:24:33.784Z,61.72
2019-02-19T15:27:14.065Z,62.72
2019-02-19T15:29:44.867Z,65.37
2019-02-19T15:32:18.630Z,67.07
2019-02-19T15:34:48.010Z,67.52
2019-02-19T15:37:32.210Z,67.76
2019-02-19T15:40:03.467Z,69.22
2019-02-19T15:42:42.214Z,71.83
2019-02-19T15:45:29.805Z,71.30
2019-02-19T15:48:07.658Z,71.97
2019-02-19T15:50:54.732Z,72.87
2019-02-19T15:53:32.646Z,72.47
2019-02-19T15:56:17.852Z,71.96
2019-02-19T15:58:49.528Z,71.88
2019-02-19T16:01:38.461Z,72.92
2019-02-19T16:04:15.662Z,72.76
2019-02-19T16:06:52.564Z,72.94
2019-02-19T16:09:24.861Z,72.95
2019-02-19T16:12:13.724Z,72.73
2019-02-19T16:14:50.917Z,73.44
2019-02-19T16:17:24.614Z,74.99
2019-02-19T16:20:11.837Z,74.31
2019-02-19T16:22:46.091Z,74.35
2019-02-19T16:25:17.441Z,74.87
2019-02-19T16:28:06.888Z,74.16
2019-02-19T16:30:47.220Z,74.60
2019-02-19T16:33:24.459Z,75.28
2019-02-19T16:35:58.503Z,76.27
2019-02-19T16:38:44.915Z,76.17
2019-02-19T16:41:32.328Z,75.47
2019-02-19T16:44:09.455Z,75.42
2019-02-19T16:46:43.629Z,76.12
2019-02-19T16:49:14.801Z,76.54
2019-02-19T16:51:46.045Z,76.10
2019-02-19T16:54:20.307Z,76.44
2019-02-19T16:56:51.641Z,77.34
2019-02-19T16:59:22.917Z,77.47
2019-02-19T17:01:54.237Z,76.61
2019-02-19T17:04:31.915Z,76.25
2019-02-19T17:07:19.156Z,75.79
2019-02-19T17:09:53.329Z,75.91
2019-02-19T17:12:40.617Z,75.97
2019-02-19T17:15:30.052Z,76.28
2019-02-19T17:17:59.797Z,76.67
2019-02-19T17:20:35.009Z,76.52
2019-02-19T17:23:18.484Z,76.90
2019-02-19T17:25:58.244Z,76.70
2019-02-19T17:28:36.395Z,76.72
2019-02-19T17:31:05.716Z,76.57
2019-02-19T17:33:35.004Z,76.55
2019-02-19T17:36:15.311Z,75.96
2019-02-19T17:38:46.593Z,75.99
2019-02-19T17:41:20.599Z,76.50
2019-02-19T17:43:55.034Z,76.77
2019-02-19T17:46:42.343Z,76.93
2019-02-19T17:49:29.567Z,76.16
2019-02-19T17:52:01.746Z,76.19
2019-02-19T17:54:32.973Z,76.29
2019-02-19T17:57:04.309Z,76.56
2019-02-19T17:59:36.617Z,76.19
2019-02-19T18:02:08.036Z,76.53
2019-02-19T18:04:43.042Z,76.00
2019-02-19T18:07:30.559Z,76.19
2019-02-19T18:10:08.267Z,75.01
2019-02-19T18:12:45.709Z,75.26
2019-02-19T18:15:17.141Z,76.04
2019-02-19T18:17:53.265Z,75.68
2019-02-19T18:20:23.219Z,75.86
2019-02-19T18:22:52.937Z,75.82
2019-02-19T18:25:22.806Z,76.22
2019-02-19T18:27:52.507Z,75.72
2019-02-19T18:30:22.196Z,75.21
2019-02-19T18:32:51.901Z,75.41
2019-02-19T18:35:24.807Z,75.19
2019-02-19T18:37:54.497Z,75.20
2019-02-19T18:40:24.214Z,74.71
2019-02-19T18:42:53.910Z,74.92
2019-02-19T18:45:23.486Z,74.90
2019-02-19T18:47:53.197Z,74.24
2019-02-19T18:50:24.607Z,73.94
2019-02-19T18:52:54.262Z,74.07
2019-02-19T18:55:23.967Z,74.54
2019-02-19T18:57:54.755Z,75.11
2019-02-19T19:00:24.425Z,74.42
2019-02-19T19:02:54.135Z,74.36
2019-02-19T19:05:23.826Z,74.22
2019-02-19T19:07:53.398Z,73.34
2019-02-19T19:10:22.937Z,73.72
2019-02-19T19:12:52.501Z,73.70
2019-02-19T19:15:22.119Z,73.50
2019-02-19T19:17:51.813Z,73.96
2019-02-19T19:20:21.737Z,73.74
2019-02-19T19:22:51.241Z,73.94
2019-02-19T19:25:20.848Z,73.96
2019-02-19T19:27:50.528Z,73.52
2019-02-19T19:30:20.347Z,73.78
2019-02-19T19:32:52.122Z,74.67
2019-02-19T19:35:21.817Z,74.81
2019-02-19T19:37:51.340Z,74.21
2019-02-19T19:40:21.462Z,74.31
2019-02-19T19:42:51.306Z,74.05
2019-02-19T19:45:20.938Z,74.04
2019-02-19T19:47:50.590Z,74.97
2019-02-19T19:50:20.358Z,74.58
2019-02-19T19:52:50.042Z,74.55
2019-02-19T19:55:19.556Z,74.70
2019-02-19T19:57:49.305Z,74.52
2019-02-19T20:00:19.076Z,74.89
2019-02-19T20:02:48.772Z,74.75
2019-02-19T20:05:19.046Z,74.44
2019-02-19T20:07:48.803Z,74.43
2019-02-19T20:10:18.512Z,73.78
2019-02-19T20:12:48.153Z,73.71
2019-02-19T20:15:17.901Z,73.07
2019-02-19T20:17:47.628Z,73.30
2019-02-19T20:20:17.209Z,73.55
2019-02-19T20:22:47.530Z,73.06
2019-02-19T20:25:17.312Z,73.02
2019-02-19T20:27:51.805Z,73.43
2019-02-19T20:30:26.000Z,72.82
2019-02-19T20:32:55.917Z,72.79
2019-02-19T20:35:26.349Z,72.97
2019-02-19T20:37:56.433Z,73.03
2019-02-19T20:40:26.334Z,73.04
2019-02-19T20:42:56.857Z,72.90
2019-02-19T20:45:26.886Z,71.89
2019-02-19T20:47:56.706Z,72.33
2019-02-19T20:50:26.679Z,72.35
2019-02-19T20:52:56.520Z,72.90
2019-02-19T20:55:26.380Z,73.35
2019-02-19T20:57:55.968Z,72.84
2019-02-19T21:00:25.581Z,72.62
2019-02-19T21:02:55.261Z,73.29
2019-02-19T21:05:25.584Z,73.82
2019-02-19T21:07:55.186Z,74.53
2019-02-19T21:10:24.916Z,73.75
2019-02-19T21:12:54.923Z,73.65
2019-02-19T21:15:24.628Z,73.55
2019-02-19T21:17:54.299Z,73.35
2019-02-19T21:20:24.014Z,73.35
2019-02-19T21:22:53.950Z,73.72
2019-02-19T21:25:30.847Z,73.34
2019-02-19T21:27:55.096Z,72.75
2019-02-19T21:30:25.260Z,72.16
2019-02-19T21:32:55.410Z,72.32
2019-02-19T21:35:25.437Z,72.34
2019-02-19T21:37:55.436Z,72.35
2019-02-19T21:40:25.452Z,72.58
2019-02-19T21:42:55.284Z,72.84
2019-02-19T21:45:44.431Z,73.63
2019-02-19T21:48:14.753Z,73.24
2019-02-19T21:50:44.679Z,73.55
2019-02-19T21:53:14.596Z,74.17
2019-02-19T21:55:44.457Z,74.73
2019-02-19T21:58:14.341Z,74.41
2019-02-19T22:00:44.668Z,73.69
2019-02-19T22:03:14.394Z,74.10
2019-02-19T22:05:44.298Z,73.57
2019-02-19T22:08:14.198Z,72.82
2019-02-19T22:10:44.226Z,73.23
2019-02-19T22:13:13.906Z,72.79
2019-02-19T22:15:43.835Z,72.91
2019-02-19T22:18:16.745Z,72.81
2019-02-19T22:20:48.249Z,72.64
2019-02-19T22:23:18.204Z,73.43
2019-02-19T22:25:48.617Z,73.97
2019-02-19T22:28:18.498Z,73.51
2019-02-19T22:30:48.731Z,74.56
2019-02-19T22:33:19.146Z,74.83
2019-02-19T22:35:48.887Z,75.11
2019-02-19T22:38:18.801Z,74.54
2019-02-19T22:40:55.005Z,73.78
2019-02-19T22:43:20.538Z,73.52
2019-02-19T22:45:50.584Z,73.36
2019-02-19T22:48:20.898Z,73.65
2019-02-19T22:50:53.592Z,73.63
2019-02-19T22:53:39.653Z,73.35
2019-02-19T22:56:10.848Z,73.23
2019-02-19T22:58:40.440Z,73.37
2019-02-19T23:01:12.307Z,73.61
2019-02-19T23:03:42.019Z,72.89
2019-02-19T23:06:11.731Z,73.39
2019-02-19T23:08:41.641Z,73.83
2019-02-19T23:11:11.246Z,73.23
2019-02-19T23:13:40.855Z,72.78
2019-02-19T23:16:10.566Z,72.62
2019-02-19T23:18:40.099Z,72.40
2019-02-19T23:21:10.181Z,72.02
2019-02-19T23:23:39.800Z,72.95
2019-02-19T23:26:09.559Z,73.25
2019-02-19T23:28:39.112Z,72.05
2019-02-19T23:31:09.431Z,71.59
2019-02-19T23:33:40.107Z,71.08
2019-02-19T23:36:26.120Z,71.30
2019-02-19T23:38:57.670Z,71.48
2019-02-19T23:41:27.249Z,71.17
2019-02-19T23:43:56.989Z,71.81
2019-02-19T23:46:26.715Z,71.54
2019-02-19T23:48:56.408Z,71.12
2019-02-19T23:51:26.343Z,71.92
2019-02-19T23:53:55.871Z,72.34
2019-02-19T23:56:25.723Z,72.21
2019-02-19T23:58:55.384Z,72.01
